createdAt,value
2023-04-03T00:00:36.254Z,20.99
2023-04-03T00:01:36.112Z,21.01
2023-04-03T00:02:36.210Z,21.03
2023-04-03T00:03:36.263Z,21.02
2023-04-03T00:04:36.394Z,21.04
2023-04-03T00:05:36.442Z,21.03
2023-04-03T00:06:36.513Z,21.03
2023-04-03T00:07:36.605Z,21.02
2023-04-03T00:08:36.689Z,21.02
2023-04-03T00:09:36.784Z,21.02
2023-04-03T00:10:37.144Z,21.01
2023-04-03T00:11:36.953Z,21.01
2023-04-03T00:12:37.073Z,21.00
2023-04-03T00:13:37.140Z,21.00
2023-04-03T00:14:37.237Z,21.00
2023-04-03T00:15:37.328Z,20.99
2023-04-03T00:16:37.474Z,20.99
2023-04-03T00:17:37.514Z,20.98
2023-04-03T00:18:37.574Z,20.98
2023-04-03T00:19:37.675Z,20.96
2023-04-03T00:20:38.110Z,20.97
2023-04-03T00:21:37.848Z,20.96
2023-04-03T00:22:37.945Z,20.95
2023-04-03T00:23:38.033Z,20.96
2023-04-03T00:24:38.115Z,20.96
2023-04-03T00:25:38.206Z,20.95
2023-04-03T00:26:38.307Z,20.94
2023-04-03T00:27:38.398Z,20.94
2023-04-03T00:28:38.527Z,20.93
2023-04-03T00:29:38.575Z,20.94
2023-04-03T00:30:39.032Z,20.94
2023-04-03T00:31:38.767Z,20.94
2023-04-03T00:32:38.948Z,20.94
2023-04-03T00:33:38.942Z,20.94
2023-04-03T00:34:39.025Z,20.93
2023-04-03T00:35:39.201Z,20.93
2023-04-03T00:36:39.273Z,20.93
2023-04-03T00:37:39.292Z,20.93
2023-04-03T00:38:39.376Z,20.93
2023-04-03T00:39:39.457Z,20.93
2023-04-03T00:40:39.557Z,20.93
2023-04-03T00:41:39.629Z,20.93
2023-04-03T00:42:39.711Z,20.93
2023-04-03T00:43:39.810Z,20.92
2023-04-03T00:44:39.918Z,20.93
2023-04-03T00:45:39.991Z,20.93
2023-04-03T00:46:40.342Z,20.93
2023-04-03T00:47:40.184Z,20.92
2023-04-03T00:48:40.250Z,20.91
2023-04-03T00:49:40.354Z,20.91
2023-04-03T00:50:40.436Z,20.91
2023-04-03T00:51:40.524Z,20.93
2023-04-03T00:52:40.621Z,20.92
2023-04-03T00:53:40.715Z,20.93
2023-04-03T00:54:40.799Z,20.93
2023-04-03T00:55:40.884Z,20.93
2023-04-03T00:56:40.979Z,20.94
2023-04-03T00:57:41.056Z,20.95
2023-04-03T00:58:41.148Z,20.94
2023-04-03T00:59:41.239Z,20.94
2023-04-03T01:00:41.355Z,20.94
2023-04-03T01:01:41.502Z,20.93
2023-04-03T01:02:41.536Z,20.92
2023-04-03T01:03:41.593Z,20.92
2023-04-03T01:04:41.691Z,20.91
2023-04-03T01:05:41.784Z,20.91
2023-04-03T01:06:41.879Z,20.91
2023-04-03T01:07:41.974Z,20.91
2023-04-03T01:08:42.055Z,20.91
2023-04-03T01:09:42.153Z,20.92
2023-04-03T01:10:42.240Z,20.93
2023-04-03T01:11:42.321Z,20.93
2023-04-03T01:12:46.480Z,20.94
2023-04-03T01:13:42.446Z,20.93
2023-04-03T01:14:43.539Z,20.92
2023-04-03T01:15:42.511Z,20.92
2023-04-03T01:16:42.559Z,20.91
2023-04-03T01:17:42.617Z,20.90
2023-04-03T01:18:42.628Z,20.90
2023-04-03T01:19:42.658Z,20.90
2023-04-03T01:20:43.477Z,20.90
2023-04-03T01:21:42.738Z,20.89
2023-04-03T01:22:42.775Z,20.89
2023-04-03T01:23:42.812Z,20.88
2023-04-03T01:24:42.841Z,20.87
2023-04-03T01:25:42.900Z,20.87
2023-04-03T01:26:42.929Z,20.86
2023-04-03T01:27:42.963Z,20.86
2023-04-03T01:28:43.023Z,20.86
2023-04-03T01:29:43.041Z,20.86
2023-04-03T01:30:43.064Z,20.85
2023-04-03T01:31:43.139Z,20.85
2023-04-03T01:32:43.178Z,20.84
2023-04-03T01:33:43.217Z,20.84
2023-04-03T01:34:43.300Z,20.84
2023-04-03T01:35:43.437Z,20.84
2023-04-03T01:36:43.500Z,20.84
2023-04-03T01:37:43.607Z,20.82
2023-04-03T01:38:43.703Z,20.82
2023-04-03T01:39:43.805Z,20.83
2023-04-03T01:40:43.903Z,20.84
2023-04-03T01:41:44.003Z,20.83
2023-04-03T01:42:44.135Z,20.82
2023-04-03T01:43:44.208Z,20.83
2023-04-03T01:44:44.311Z,20.83
2023-04-03T01:45:44.401Z,20.83
2023-04-03T01:46:44.499Z,20.82
2023-04-03T01:47:44.664Z,20.82
2023-04-03T01:48:44.713Z,20.82
2023-04-03T01:49:44.802Z,20.82
2023-04-03T01:50:44.907Z,20.81
2023-04-03T01:51:45.015Z,20.81
2023-04-03T01:52:45.108Z,20.80
2023-04-03T01:53:45.216Z,20.80
2023-04-03T01:54:45.317Z,20.80
2023-04-03T01:55:45.415Z,20.80
2023-04-03T01:56:45.526Z,20.79
2023-04-03T01:57:45.647Z,20.79
2023-04-03T01:58:45.731Z,20.78
2023-04-03T01:59:45.842Z,20.78
2023-04-03T02:00:45.968Z,20.79
2023-04-03T02:01:46.033Z,20.78
2023-04-03T02:02:46.230Z,20.79
2023-04-03T02:03:46.284Z,20.78
2023-04-03T02:04:46.335Z,20.79
2023-04-03T02:05:46.424Z,20.77
2023-04-03T02:06:46.532Z,20.77
2023-04-03T02:07:46.635Z,20.77
2023-04-03T02:08:46.733Z,20.77
2023-04-03T02:09:46.884Z,20.77
2023-04-03T02:10:46.915Z,20.76
2023-04-03T02:11:47.023Z,20.76
2023-04-03T02:12:47.122Z,20.76
2023-04-03T02:13:47.229Z,20.77
2023-04-03T02:14:47.337Z,20.77
2023-04-03T02:15:47.430Z,20.77
2023-04-03T02:16:47.562Z,20.78
2023-04-03T02:17:47.665Z,20.78
2023-04-03T02:18:47.738Z,20.78
2023-04-03T02:19:47.881Z,20.79
2023-04-03T02:20:47.949Z,20.80
2023-04-03T02:21:48.050Z,20.81
2023-04-03T02:22:48.158Z,20.80
2023-04-03T02:23:48.231Z,20.81
2023-04-03T02:24:48.328Z,20.83
2023-04-03T02:25:48.416Z,20.84
2023-04-03T02:26:48.509Z,20.84
2023-04-03T02:27:48.596Z,20.83
2023-04-03T02:28:48.700Z,20.83
2023-04-03T02:29:48.783Z,20.82
2023-04-03T02:30:48.922Z,20.81
2023-04-03T02:31:48.985Z,20.81
2023-04-03T02:32:49.095Z,20.81
2023-04-03T02:33:49.158Z,20.79
2023-04-03T02:34:49.272Z,20.79
2023-04-03T02:35:49.387Z,20.79
2023-04-03T02:36:49.443Z,20.77
2023-04-03T02:37:49.546Z,20.77
2023-04-03T02:38:49.644Z,20.77
2023-04-03T02:39:49.738Z,20.78
2023-04-03T02:40:49.845Z,20.77
2023-04-03T02:41:49.950Z,20.77
2023-04-03T02:42:50.052Z,20.76
2023-04-03T02:43:50.146Z,20.76
2023-04-03T02:44:50.266Z,20.75
2023-04-03T02:45:50.411Z,20.75
2023-04-03T02:46:50.472Z,20.76
2023-04-03T02:47:50.695Z,20.76
2023-04-03T02:48:50.711Z,20.75
2023-04-03T02:49:50.784Z,20.74
2023-04-03T02:50:50.907Z,20.74
2023-04-03T02:51:50.988Z,20.73
2023-04-03T02:52:51.093Z,20.72
2023-04-03T02:53:51.182Z,20.72
2023-04-03T02:54:51.298Z,20.72
2023-04-03T02:55:51.396Z,20.71
2023-04-03T02:56:51.538Z,20.72
2023-04-03T02:57:51.613Z,20.71
2023-04-03T02:58:51.711Z,20.70
2023-04-03T02:59:51.824Z,20.71
2023-04-03T03:00:51.917Z,20.71
2023-04-03T03:01:52.084Z,20.72
2023-04-03T03:02:52.156Z,20.72
2023-04-03T03:03:52.218Z,20.72
2023-04-03T03:04:52.395Z,20.72
2023-04-03T03:05:52.437Z,20.72
2023-04-03T03:06:52.560Z,20.73
2023-04-03T03:07:52.632Z,20.73
2023-04-03T03:08:52.741Z,20.73
2023-04-03T03:09:53.285Z,20.73
2023-04-03T03:10:52.961Z,20.72
2023-04-03T03:11:53.061Z,20.73
2023-04-03T03:12:53.165Z,20.72
2023-04-03T03:13:53.293Z,20.72
2023-04-03T03:14:53.413Z,20.72
2023-04-03T03:15:53.488Z,20.71
2023-04-03T03:16:53.589Z,20.71
2023-04-03T03:17:53.717Z,20.70
2023-04-03T03:18:53.810Z,20.70
2023-04-03T03:19:53.919Z,20.70
2023-04-03T03:20:54.035Z,20.69
2023-04-03T03:21:54.149Z,20.70
2023-04-03T03:22:54.247Z,20.71
2023-04-03T03:23:54.344Z,20.73
2023-04-03T03:24:54.442Z,20.73
2023-04-03T03:25:54.551Z,20.73
2023-04-03T03:26:54.652Z,20.75
2023-04-03T03:27:54.761Z,20.75
2023-04-03T03:28:54.865Z,20.74
2023-04-03T03:29:54.968Z,20.74
2023-04-03T03:30:55.090Z,20.73
2023-04-03T03:31:55.205Z,20.73
2023-04-03T03:32:55.353Z,20.72
2023-04-03T03:33:54.407Z,20.72
2023-04-03T03:34:55.506Z,20.72
2023-04-03T03:35:55.663Z,20.70
2023-04-03T03:36:55.698Z,20.70
2023-04-03T03:37:55.839Z,20.70
2023-04-03T03:38:55.912Z,20.70
2023-04-03T03:39:56.005Z,20.70
2023-04-03T03:40:56.103Z,20.70
2023-04-03T03:41:56.210Z,20.70
2023-04-03T03:42:56.293Z,20.68
2023-04-03T03:43:56.362Z,20.68
2023-04-03T03:44:56.499Z,20.68
2023-04-03T03:45:56.547Z,20.69
2023-04-03T03:46:56.696Z,20.68
2023-04-03T03:47:56.799Z,20.68
2023-04-03T03:48:56.844Z,20.68
2023-04-03T03:49:56.951Z,20.68
2023-04-03T03:50:57.094Z,20.67
2023-04-03T03:51:57.179Z,20.67
2023-04-03T03:52:57.261Z,20.68
2023-04-03T03:53:57.381Z,20.67
2023-04-03T03:54:57.459Z,20.67
2023-04-03T03:55:57.578Z,20.66
2023-04-03T03:56:57.665Z,20.66
2023-04-03T03:57:57.772Z,20.66
2023-04-03T03:58:57.872Z,20.66
2023-04-03T03:59:57.981Z,20.66
2023-04-03T04:00:58.100Z,20.66
2023-04-03T04:01:58.200Z,20.65
2023-04-03T04:02:59.487Z,20.64
2023-04-03T04:03:58.466Z,20.63
2023-04-03T04:04:58.485Z,20.63
2023-04-03T04:05:58.575Z,20.63
2023-04-03T04:06:58.665Z,20.65
2023-04-03T04:07:58.780Z,20.64
2023-04-03T04:08:58.886Z,20.64
2023-04-03T04:09:58.988Z,20.64
2023-04-03T04:10:59.070Z,20.64
2023-04-03T04:11:59.173Z,20.63
2023-04-03T04:12:59.283Z,20.63
2023-04-03T04:13:59.378Z,20.63
2023-04-03T04:14:59.482Z,20.62
2023-04-03T04:15:59.597Z,20.62
2023-04-03T04:16:59.723Z,20.62
2023-04-03T04:17:59.843Z,20.62
2023-04-03T04:18:59.924Z,20.62
2023-04-03T04:20:00.055Z,20.62
2023-04-03T04:21:00.143Z,20.63
2023-04-03T04:22:00.244Z,20.63
2023-04-03T04:23:00.365Z,20.62
2023-04-03T04:24:00.504Z,20.62
2023-04-03T04:25:00.618Z,20.62
2023-04-03T04:26:00.688Z,20.62
2023-04-03T04:27:00.793Z,20.62
2023-04-03T04:28:00.913Z,20.60
2023-04-03T04:29:01.011Z,20.60
2023-04-03T04:30:01.125Z,20.60
2023-04-03T04:31:01.241Z,20.60
2023-04-03T04:32:01.294Z,20.60
2023-04-03T04:33:01.406Z,20.61
2023-04-03T04:34:01.463Z,20.60
2023-04-03T04:35:01.578Z,20.61
2023-04-03T04:36:01.749Z,20.60
2023-04-03T04:37:01.940Z,20.61
2023-04-03T04:38:01.836Z,20.60
2023-04-03T04:39:01.954Z,20.60
2023-04-03T04:40:02.050Z,20.60
2023-04-03T04:41:02.206Z,20.60
2023-04-03T04:42:02.255Z,20.59
2023-04-03T04:43:02.360Z,20.59
2023-04-03T04:44:02.426Z,20.59
2023-04-03T04:45:03.024Z,20.60
2023-04-03T04:46:02.723Z,20.60
2023-04-03T04:47:02.756Z,20.60
2023-04-03T04:48:02.906Z,20.60
2023-04-03T04:49:02.970Z,20.61
2023-04-03T04:50:03.085Z,20.60
2023-04-03T04:51:03.190Z,20.60
2023-04-03T04:52:03.293Z,20.60
2023-04-03T04:53:03.398Z,20.59
2023-04-03T04:54:03.502Z,20.60
2023-04-03T04:55:03.599Z,20.59
2023-04-03T04:56:03.692Z,20.59
2023-04-03T04:57:03.888Z,20.58
2023-04-03T04:58:03.875Z,20.58
2023-04-03T04:59:03.953Z,20.58
2023-04-03T05:00:04.037Z,20.58
2023-04-03T05:01:04.125Z,20.57
2023-04-03T05:02:04.317Z,20.57
2023-04-03T05:03:04.426Z,20.57
2023-04-03T05:04:04.391Z,20.57
2023-04-03T05:05:05.251Z,20.57
2023-04-03T05:06:04.599Z,20.58
2023-04-03T05:07:04.667Z,20.58
2023-04-03T05:08:04.798Z,20.58
2023-04-03T05:09:04.871Z,20.58
2023-04-03T05:10:05.019Z,20.58
2023-04-03T05:11:05.038Z,20.57
2023-04-03T05:12:05.140Z,20.57
2023-04-03T05:13:05.248Z,20.57
2023-04-03T05:14:05.328Z,20.57
2023-04-03T05:15:05.432Z,20.57
2023-04-03T05:16:05.578Z,20.57
2023-04-03T05:17:05.660Z,20.57
2023-04-03T05:18:05.858Z,20.57
2023-04-03T05:19:05.869Z,20.57
2023-04-03T05:20:05.954Z,20.57
2023-04-03T05:21:06.041Z,20.57
2023-04-03T05:22:06.140Z,20.58
2023-04-03T05:23:06.235Z,20.58
2023-04-03T05:24:06.312Z,20.58
2023-04-03T05:25:06.416Z,20.57
2023-04-03T05:26:06.556Z,20.58
2023-04-03T05:27:06.633Z,20.57
2023-04-03T05:28:06.719Z,20.58
2023-04-03T05:29:06.866Z,20.57
2023-04-03T05:30:06.961Z,20.57
2023-04-03T05:31:07.046Z,20.57
2023-04-03T05:32:07.136Z,20.57
2023-04-03T05:33:07.262Z,20.57
2023-04-03T05:34:07.294Z,20.57
2023-04-03T05:35:07.393Z,20.57
2023-04-03T05:36:07.505Z,20.58
2023-04-03T05:37:07.580Z,20.58
2023-04-03T05:38:07.625Z,20.58
2023-04-03T05:39:07.744Z,20.57
2023-04-03T05:40:07.785Z,20.57
2023-04-03T05:41:07.850Z,20.57
2023-04-03T05:42:07.932Z,20.57
2023-04-03T05:43:08.029Z,20.57
2023-04-03T05:44:08.124Z,20.57
2023-04-03T05:45:08.235Z,20.56
2023-04-03T05:46:08.308Z,20.57
2023-04-03T05:47:08.373Z,20.57
2023-04-03T05:48:08.480Z,20.57
2023-04-03T05:49:08.526Z,20.56
2023-04-03T05:50:08.628Z,20.56
2023-04-03T05:51:08.681Z,20.56
2023-04-03T05:52:08.760Z,20.57
2023-04-03T05:53:08.836Z,20.57
2023-04-03T05:54:08.925Z,20.58
2023-04-03T05:55:09.033Z,20.58
2023-04-03T05:56:09.088Z,20.57
2023-04-03T05:57:09.257Z,20.57
2023-04-03T05:58:11.485Z,20.56
2023-04-03T05:59:09.317Z,20.57
2023-04-03T06:00:09.351Z,20.57
2023-04-03T06:01:09.407Z,20.57
2023-04-03T06:02:09.470Z,20.58
2023-04-03T06:03:09.581Z,20.57
2023-04-03T06:04:09.575Z,20.58
2023-04-03T06:05:09.642Z,20.56
2023-04-03T06:06:09.595Z,20.56
2023-04-03T06:07:09.635Z,20.54
2023-04-03T06:08:09.669Z,20.55
2023-04-03T06:09:09.708Z,20.54
2023-04-03T06:10:09.761Z,20.55
2023-04-03T06:11:09.804Z,20.55
2023-04-03T06:12:09.844Z,20.54
2023-04-03T06:13:09.877Z,20.55
2023-04-03T06:14:09.908Z,20.56
2023-04-03T06:15:09.959Z,20.56
2023-04-03T06:16:09.998Z,20.57
2023-04-03T06:17:10.089Z,20.57
2023-04-03T06:18:10.127Z,20.57
2023-04-03T06:19:10.105Z,20.57
2023-04-03T06:20:10.129Z,20.57
2023-04-03T06:21:10.173Z,20.58
2023-04-03T06:22:10.217Z,20.59
2023-04-03T06:23:10.259Z,20.58
2023-04-03T06:24:10.296Z,20.58
2023-04-03T06:25:10.495Z,20.58
2023-04-03T06:26:11.135Z,20.59
2023-04-03T06:27:10.415Z,20.58
2023-04-03T06:28:10.460Z,20.58
2023-04-03T06:29:10.500Z,20.58
2023-04-03T06:30:10.571Z,20.58
2023-04-03T06:31:10.607Z,20.58
2023-04-03T06:32:10.689Z,20.57
2023-04-03T06:33:10.857Z,20.58
2023-04-03T06:34:10.885Z,20.58
2023-04-03T06:35:10.986Z,20.58
2023-04-03T06:36:11.154Z,20.58
2023-04-03T06:37:11.216Z,20.58
2023-04-03T06:38:11.284Z,20.59
2023-04-03T06:39:11.376Z,20.59
2023-04-03T06:40:11.482Z,20.59
2023-04-03T06:41:11.619Z,20.58
2023-04-03T06:42:11.696Z,20.59
2023-04-03T06:43:11.810Z,20.60
2023-04-03T06:44:11.925Z,20.61
2023-04-03T06:45:12.031Z,20.60
2023-04-03T06:46:12.247Z,20.61
2023-04-03T06:47:12.257Z,20.61
2023-04-03T06:48:12.351Z,20.61
2023-04-03T06:49:12.470Z,20.61
2023-04-03T06:50:12.553Z,20.60
2023-04-03T06:51:12.617Z,20.61
2023-04-03T06:52:12.720Z,20.62
2023-04-03T06:53:12.831Z,20.62
2023-04-03T06:54:12.928Z,20.62
2023-04-03T06:55:13.034Z,20.61
2023-04-03T06:56:13.135Z,20.61
2023-04-03T06:57:13.242Z,20.61
2023-04-03T06:58:13.313Z,20.61
2023-04-03T06:59:13.420Z,20.61
2023-04-03T07:00:13.525Z,20.61
2023-04-03T07:01:13.732Z,20.61
2023-04-03T07:02:13.800Z,20.62
2023-04-03T07:03:13.848Z,20.62
2023-04-03T07:04:13.967Z,20.62
2023-04-03T07:05:14.094Z,20.63
2023-04-03T07:06:14.172Z,20.63
2023-04-03T07:07:14.308Z,20.63
2023-04-03T07:08:14.395Z,20.63
2023-04-03T07:09:14.501Z,20.64
2023-04-03T07:10:14.601Z,20.64
2023-04-03T07:11:14.723Z,20.64
2023-04-03T07:12:14.883Z,20.65
2023-04-03T07:13:14.935Z,20.66
2023-04-03T07:14:15.094Z,20.69
2023-04-03T07:15:15.297Z,20.72
2023-04-03T07:16:15.307Z,20.74
2023-04-03T07:17:15.387Z,20.74
2023-04-03T07:18:15.460Z,20.74
2023-04-03T07:19:15.576Z,20.76
2023-04-03T07:20:15.778Z,20.76
2023-04-03T07:21:15.785Z,20.76
2023-04-03T07:22:15.844Z,20.77
2023-04-03T07:23:15.967Z,20.79
2023-04-03T07:24:16.845Z,20.82
2023-04-03T07:25:16.214Z,20.84
2023-04-03T07:26:16.373Z,20.86
2023-04-03T07:27:16.355Z,20.88
2023-04-03T07:28:16.371Z,20.88
2023-04-03T07:29:16.439Z,20.86
2023-04-03T07:30:16.518Z,20.87
2023-04-03T07:31:16.666Z,20.87
2023-04-03T07:32:16.718Z,20.88
2023-04-03T07:33:16.783Z,20.89
2023-04-03T07:34:16.850Z,20.91
2023-04-03T07:35:16.988Z,20.91
2023-04-03T07:36:17.520Z,20.90
2023-04-03T07:37:17.165Z,20.90
2023-04-03T07:38:17.206Z,20.88
2023-04-03T07:39:17.298Z,20.88
2023-04-03T07:40:18.476Z,20.87
2023-04-03T07:41:17.416Z,20.87
2023-04-03T07:42:17.492Z,20.86
2023-04-03T07:43:17.479Z,20.86
2023-04-03T07:44:17.514Z,20.86
2023-04-03T07:45:17.566Z,20.87
2023-04-03T07:46:17.647Z,20.88
2023-04-03T07:47:17.630Z,20.88
2023-04-03T07:48:17.676Z,20.88
2023-04-03T07:49:17.713Z,20.87
2023-04-03T07:50:17.747Z,20.87
2023-04-03T07:51:17.769Z,20.87
2023-04-03T07:52:17.839Z,20.88
2023-04-03T07:53:17.872Z,20.91
2023-04-03T07:54:17.880Z,20.93
2023-04-03T07:55:17.906Z,20.95
2023-04-03T07:56:17.947Z,20.96
2023-04-03T07:57:18.007Z,20.98
2023-04-03T07:58:18.033Z,20.99
2023-04-03T07:59:18.042Z,21.01
2023-04-03T08:00:18.080Z,21.01
2023-04-03T08:01:18.110Z,21.03
2023-04-03T08:02:18.140Z,21.02
2023-04-03T08:03:18.281Z,21.04
2023-04-03T08:04:18.263Z,21.03
2023-04-03T08:05:18.231Z,21.02
2023-04-03T08:06:21.683Z,21.04
2023-04-03T08:07:18.290Z,21.04
2023-04-03T08:08:20.043Z,21.05
2023-04-03T08:09:18.388Z,21.07
2023-04-03T08:10:18.380Z,21.07
2023-04-03T08:11:18.421Z,21.09
2023-04-03T08:12:18.446Z,21.09
2023-04-03T08:13:18.497Z,21.10
2023-04-03T08:14:18.509Z,21.11
2023-04-03T08:15:18.545Z,21.12
2023-04-03T08:16:18.674Z,21.12
2023-04-03T08:17:18.608Z,21.13
2023-04-03T08:18:18.637Z,21.14
2023-04-03T08:19:25.417Z,21.14
2023-04-03T08:20:18.693Z,21.14
2023-04-03T08:21:18.726Z,21.13
2023-04-03T08:22:18.751Z,21.14
2023-04-03T08:23:19.975Z,21.14
2023-04-03T08:24:18.809Z,21.16
2023-04-03T08:25:18.862Z,21.17
2023-04-03T08:26:18.864Z,21.18
2023-04-03T08:27:18.919Z,21.19
2023-04-03T08:28:18.985Z,21.21
2023-04-03T08:29:19.066Z,21.22
2023-04-03T08:30:19.104Z,21.21
2023-04-03T08:31:19.226Z,21.21
2023-04-03T08:32:19.207Z,21.20
2023-04-03T08:33:19.278Z,21.21
2023-04-03T08:34:19.438Z,21.21
2023-04-03T08:35:19.425Z,21.24
2023-04-03T08:36:19.494Z,21.25
2023-04-03T08:37:19.526Z,21.25
2023-04-03T08:38:19.591Z,21.25
2023-04-03T08:39:19.641Z,21.25
2023-04-03T08:40:19.706Z,21.26
2023-04-03T08:41:19.898Z,21.26
2023-04-03T08:42:19.828Z,21.29
2023-04-03T08:43:19.884Z,21.32
2023-04-03T08:44:19.943Z,21.33
2023-04-03T08:45:19.995Z,21.35
2023-04-03T08:46:20.067Z,21.36
2023-04-03T08:47:20.082Z,21.37
2023-04-03T08:48:20.133Z,21.36
2023-04-03T08:49:20.199Z,21.31
2023-04-03T08:50:20.248Z,21.29
2023-04-03T08:51:20.329Z,21.26
2023-04-03T08:52:20.400Z,21.27
2023-04-03T08:53:20.471Z,21.26
2023-04-03T08:54:20.542Z,21.27
2023-04-03T08:55:20.625Z,21.27
2023-04-03T08:56:20.696Z,21.26
2023-04-03T08:57:20.905Z,21.24
2023-04-03T08:58:20.853Z,21.23
2023-04-03T08:59:20.925Z,21.23
2023-04-03T09:00:21.050Z,21.23
2023-04-03T09:01:21.115Z,21.22
2023-04-03T09:02:21.163Z,21.22
2023-04-03T09:03:21.309Z,21.23
2023-04-03T09:04:21.376Z,21.27
2023-04-03T09:05:22.998Z,21.29
2023-04-03T09:06:21.393Z,21.28
2023-04-03T09:07:21.425Z,21.28
2023-04-03T09:08:21.478Z,21.28
2023-04-03T09:09:21.504Z,21.28
2023-04-03T09:10:21.540Z,21.28
2023-04-03T09:11:21.570Z,21.28
2023-04-03T09:12:21.615Z,21.27
2023-04-03T09:13:21.762Z,21.27
2023-04-03T09:14:21.708Z,21.27
2023-04-03T09:15:31.357Z,21.28
2023-04-03T09:16:21.794Z,21.26
2023-04-03T09:17:21.790Z,21.26
2023-04-03T09:18:21.823Z,21.28
2023-04-03T09:19:21.923Z,21.31
2023-04-03T09:20:21.986Z,21.33
2023-04-03T09:21:21.940Z,21.37
2023-04-03T09:22:21.971Z,21.38
2023-04-03T09:23:22.012Z,21.37
2023-04-03T09:24:22.042Z,21.39
2023-04-03T09:25:22.069Z,21.41
2023-04-03T09:26:22.124Z,21.41
2023-04-03T09:27:22.216Z,21.41
2023-04-03T09:28:22.172Z,21.39
2023-04-03T09:29:22.352Z,21.39
2023-04-03T09:30:22.233Z,21.39
2023-04-03T09:31:22.314Z,21.39
2023-04-03T09:32:22.306Z,21.40
2023-04-03T09:33:22.347Z,21.44
2023-04-03T09:34:22.394Z,21.47
2023-04-03T09:35:27.391Z,21.50
2023-04-03T09:36:22.507Z,21.49
2023-04-03T09:37:22.467Z,21.46
2023-04-03T09:38:22.500Z,21.45
2023-04-03T09:39:22.561Z,21.43
2023-04-03T09:40:22.552Z,21.45
2023-04-03T09:41:22.599Z,21.46
2023-04-03T09:42:22.635Z,21.46
2023-04-03T09:43:22.649Z,21.46
2023-04-03T09:44:22.686Z,21.47
2023-04-03T09:45:22.853Z,21.48
2023-04-03T09:46:22.803Z,21.48
2023-04-03T09:47:22.785Z,21.49
2023-04-03T09:48:22.845Z,21.51
2023-04-03T09:49:22.865Z,21.52
2023-04-03T09:50:22.918Z,21.52
2023-04-03T09:51:22.908Z,21.53
2023-04-03T09:52:22.941Z,21.55
2023-04-03T09:53:22.964Z,21.55
2023-04-03T09:54:22.992Z,21.56
2023-04-03T09:55:23.057Z,21.57
2023-04-03T09:56:23.064Z,21.57
2023-04-03T09:57:23.108Z,21.58
2023-04-03T09:58:23.122Z,21.58
2023-04-03T09:59:23.141Z,21.56
2023-04-03T10:00:23.178Z,21.55
2023-04-03T10:01:23.354Z,21.57
2023-04-03T10:02:23.293Z,21.57
2023-04-03T10:03:23.249Z,21.54
2023-04-03T10:04:23.355Z,21.52
2023-04-03T10:05:23.309Z,21.52
2023-04-03T10:06:23.353Z,21.55
2023-04-03T10:07:23.379Z,21.55
2023-04-03T10:08:23.381Z,21.56
2023-04-03T10:09:23.405Z,21.58
2023-04-03T10:10:23.428Z,21.58
2023-04-03T10:11:23.459Z,21.56
2023-04-03T10:12:23.484Z,21.56
2023-04-03T10:13:23.514Z,21.57
2023-04-03T10:14:23.563Z,21.57
2023-04-03T10:15:23.558Z,21.57
2023-04-03T10:16:23.651Z,21.58
2023-04-03T10:17:23.803Z,21.60
2023-04-03T10:18:24.654Z,21.60
2023-04-03T10:19:23.670Z,21.61
2023-04-03T10:20:24.332Z,21.63
2023-04-03T10:21:27.509Z,21.62
2023-04-03T10:22:23.744Z,21.62
2023-04-03T10:23:23.764Z,21.62
2023-04-03T10:24:23.800Z,21.63
2023-04-03T10:25:23.820Z,21.64
2023-04-03T10:26:23.840Z,21.65
2023-04-03T10:27:23.866Z,21.66
2023-04-03T10:28:23.967Z,21.67
2023-04-03T10:29:23.919Z,21.67
2023-04-03T10:30:23.935Z,21.67
2023-04-03T10:31:24.005Z,21.67
2023-04-03T10:32:24.021Z,21.67
2023-04-03T10:33:24.127Z,21.67
2023-04-03T10:34:24.033Z,21.67
2023-04-03T10:35:24.035Z,21.69
2023-04-03T10:36:24.046Z,21.68
2023-04-03T10:37:24.076Z,21.67
2023-04-03T10:38:24.086Z,21.68
2023-04-03T10:39:24.144Z,21.66
2023-04-03T10:40:24.123Z,21.67
2023-04-03T10:41:24.140Z,21.66
2023-04-03T10:42:24.162Z,21.63
2023-04-03T10:43:24.184Z,21.64
2023-04-03T10:44:24.197Z,21.65
2023-04-03T10:45:24.241Z,21.65
2023-04-03T10:46:24.355Z,21.67
2023-04-03T10:47:24.393Z,21.67
2023-04-03T10:48:24.342Z,21.67
2023-04-03T10:49:24.410Z,21.67
2023-04-03T10:50:24.413Z,21.69
2023-04-03T10:51:24.446Z,21.69
2023-04-03T10:52:24.476Z,21.69
2023-04-03T10:53:24.543Z,21.70
2023-04-03T10:54:24.537Z,21.71
2023-04-03T10:55:24.565Z,21.70
2023-04-03T10:56:24.587Z,21.71
2023-04-03T10:57:24.659Z,21.72
2023-04-03T10:58:24.643Z,21.72
2023-04-03T10:59:24.660Z,21.72
2023-04-03T11:00:24.710Z,21.72
2023-04-03T11:01:24.727Z,21.71
2023-04-03T11:02:24.799Z,21.71
2023-04-03T11:03:24.887Z,21.70
2023-04-03T11:04:24.804Z,21.70
2023-04-03T11:05:24.983Z,21.68
2023-04-03T11:06:24.879Z,21.68
2023-04-03T11:07:24.927Z,21.67
2023-04-03T11:08:25.064Z,21.66
2023-04-03T11:09:24.982Z,21.65
2023-04-03T11:10:25.021Z,21.64
2023-04-03T11:11:25.071Z,21.62
2023-04-03T11:12:25.116Z,21.62
2023-04-03T11:13:25.230Z,21.64
2023-04-03T11:14:25.202Z,21.65
2023-04-03T11:15:25.236Z,21.66
2023-04-03T11:16:25.326Z,21.65
2023-04-03T11:17:25.346Z,21.66
2023-04-03T11:18:25.358Z,21.65
2023-04-03T11:19:25.407Z,21.66
2023-04-03T11:20:25.631Z,21.66
2023-04-03T11:21:25.617Z,21.66
2023-04-03T11:22:25.526Z,21.65
2023-04-03T11:23:26.783Z,21.65
2023-04-03T11:24:25.589Z,21.66
2023-04-03T11:25:25.627Z,21.66
2023-04-03T11:26:25.638Z,21.65
2023-04-03T11:27:25.666Z,21.65
2023-04-03T11:28:25.720Z,21.66
2023-04-03T11:29:35.180Z,21.64
2023-04-03T11:30:25.788Z,21.62
2023-04-03T11:31:25.748Z,21.59
2023-04-03T11:32:25.795Z,21.58
2023-04-03T11:33:25.789Z,21.56
2023-04-03T11:34:25.809Z,21.57
2023-04-03T11:35:25.855Z,21.58
2023-04-03T11:36:30.033Z,21.59
2023-04-03T11:37:26.041Z,21.57
2023-04-03T11:38:25.898Z,21.57
2023-04-03T11:39:25.918Z,21.59
2023-04-03T11:40:25.937Z,21.59
2023-04-03T11:41:25.974Z,21.59
2023-04-03T11:42:26.012Z,21.59
2023-04-03T11:43:26.019Z,21.59
2023-04-03T11:44:26.048Z,21.59
2023-04-03T11:45:26.098Z,21.58
2023-04-03T11:46:26.130Z,21.57
2023-04-03T11:47:26.122Z,21.56
2023-04-03T11:48:26.293Z,21.55
2023-04-03T11:49:26.159Z,21.55
2023-04-03T11:50:26.185Z,21.54
2023-04-03T11:51:26.215Z,21.52
2023-04-03T11:52:26.244Z,21.49
2023-04-03T11:53:26.438Z,21.47
2023-04-03T11:54:29.983Z,21.45
2023-04-03T11:55:26.317Z,21.44
2023-04-03T11:56:26.344Z,21.44
2023-04-03T11:57:26.426Z,21.44
2023-04-03T11:58:26.432Z,21.43
2023-04-03T11:59:26.432Z,21.43
2023-04-03T12:00:26.447Z,21.41
2023-04-03T12:01:27.211Z,21.40
2023-04-03T12:02:26.568Z,21.39
2023-04-03T12:03:26.708Z,21.38
2023-04-03T12:04:26.668Z,21.37
2023-04-03T12:05:26.580Z,21.38
2023-04-03T12:06:26.603Z,21.37
2023-04-03T12:07:26.640Z,21.36
2023-04-03T12:08:26.748Z,21.35
2023-04-03T12:09:26.800Z,21.34
2023-04-03T12:10:32.330Z,21.33
2023-04-03T12:11:26.770Z,21.33
2023-04-03T12:12:26.756Z,21.33
2023-04-03T12:13:26.790Z,21.33
2023-04-03T12:14:26.840Z,21.34
2023-04-03T12:15:26.834Z,21.34
2023-04-03T12:16:26.896Z,21.34
2023-04-03T12:17:26.935Z,21.33
2023-04-03T12:18:26.936Z,21.33
2023-04-03T12:19:41.089Z,21.33
2023-04-03T12:20:26.988Z,21.32
2023-04-03T12:21:27.024Z,21.32
2023-04-03T12:22:27.043Z,21.32
2023-04-03T12:23:27.155Z,21.32
2023-04-03T12:24:27.136Z,21.32
2023-04-03T12:25:27.254Z,21.33
2023-04-03T12:26:32.370Z,21.32
2023-04-03T12:27:27.196Z,21.31
2023-04-03T12:28:27.240Z,21.31
2023-04-03T12:29:27.265Z,21.31
2023-04-03T12:30:27.297Z,21.31
2023-04-03T12:31:27.459Z,21.31
2023-04-03T12:32:27.374Z,21.31
2023-04-03T12:33:27.470Z,21.31
2023-04-03T12:34:27.433Z,21.30
2023-04-03T12:35:26.487Z,21.31
2023-04-03T12:36:27.497Z,21.31
2023-04-03T12:37:27.550Z,21.30
2023-04-03T12:38:27.548Z,21.30
2023-04-03T12:39:27.590Z,21.30
2023-04-03T12:40:27.610Z,21.30
2023-04-03T12:41:27.766Z,21.31
2023-04-03T12:42:27.692Z,21.31
2023-04-03T12:43:27.707Z,21.31
2023-04-03T12:44:27.743Z,21.31
2023-04-03T12:45:27.804Z,21.30
2023-04-03T12:46:28.180Z,21.31
2023-04-03T12:47:27.811Z,21.31
2023-04-03T12:48:27.832Z,21.31
2023-04-03T12:49:27.876Z,21.31
2023-04-03T12:50:27.896Z,21.31
2023-04-03T12:51:28.330Z,21.31
2023-04-03T12:52:27.967Z,21.31
2023-04-03T12:53:27.990Z,21.31